TimeCDT,TemperatureF,Dew PointF,Humidity,Sea Level PressureIn,VisibilityMPH,Wind Direction,Wind SpeedMPH,Gust SpeedMPH,PrecipitationIn,Events,Conditions,WindDirDegrees,DateUTC
12:54 AM,-7.1,-9.9,87,30.32,10.0,WNW,9.2,-,N/A,,Clear,290,2013-03-16 05:54:00
1:54 AM,-8.0,-11.0,86,30.31,10.0,WSW,4.6,-,N/A,,Clear,250,2013-03-16 06:54:00
2:54 AM,-9.9,-14.1,82,30.34,10.0,SW,5.8,-,N/A,,Clear,230,2013-03-16 07:54:00
3:54 AM,-9.9,-14.1,82,30.33,10.0,SW,6.9,-,N/A,,Clear,220,2013-03-16 08:54:00
4:54 AM,-8.0,-11.9,83,30.32,10.0,WSW,6.9,-,N/A,,Clear,250,2013-03-16 09:54:00
5:54 AM,-9.9,-15.0,78,30.32,10.0,Calm,Calm,-,N/A,,Clear,0,2013-03-16 10:54:00
6:54 AM,-11.0,-15.0,83,30.34,10.0,SSW,4.6,-,N/A,,Clear,200,2013-03-16 11:54:00
7:33 AM,-9.4,-14.8,77,30.17,10.0,SW,6.9,-,N/A,,Mostly Cloudy,230,2013-03-16 12:33:00
7:37 AM,-11.2,-14.8,84,30.17,9.0,SW,8.1,-,N/A,,Mostly Cloudy,220,2013-03-16 12:37:00
7:54 AM,-9.9,-15.0,78,30.32,10.0,SW,10.4,-,N/A,,Scattered Clouds,220,2013-03-16 12:54:00
8:54 AM,-6.0,-11.0,79,30.32,5.0,SW,10.4,-,N/A,,Haze,230,2013-03-16 13:54:00
9:30 AM,-0.4,-5.8,78,30.16,2.0,WSW,9.2,-,0.00,Snow,Light Snow,250,2013-03-16 14:30:00
9:37 AM,-2.2,-5.8,85,30.16,3.0,SW,8.1,-,0.00,Snow,Light Snow,230,2013-03-16 14:37:00
9:54 AM,-0.0,-5.1,79,30.32,3.0,WSW,8.1,-,0.00,,Haze,240,2013-03-16 14:54:00
10:54 AM,3.0,-2.0,80,30.32,3.0,WNW,12.7,-,0.00,,Haze,290,2013-03-16 15:54:00
11:17 AM,3.2,-0.4,85,30.17,2.5,WNW,12.7,-,N/A,,Haze,300,2013-03-16 16:17:00
11:27 AM,3.2,-0.4,85,30.18,8.0,WNW,13.8,-,N/A,,Scattered Clouds,300,2013-03-16 16:27:00
11:54 AM,5.0,-0.9,76,30.33,8.0,NW,12.7,-,N/A,,Scattered Clouds,310,2013-03-16 16:54:00
12:54 PM,5.0,-0.9,76,30.35,10.0,NW,11.5,-,N/A,,Clear,310,2013-03-16 17:54:00
1:54 PM,5.0,-0.9,76,30.37,10.0,NW,12.7,-,N/A,,Clear,320,2013-03-16 18:54:00
2:54 PM,7.0,-0.0,73,30.36,10.0,North,11.5,-,N/A,,Overcast,350,2013-03-16 19:54:00
3:54 PM,7.0,-2.0,67,30.34,10.0,North,9.2,-,N/A,,Scattered Clouds,360,2013-03-16 20:54:00
4:54 PM,8.1,-2.0,64,30.33,10.0,North,6.9,-,N/A,,Clear,10,2013-03-16 21:54:00
5:54 PM,6.1,-2.9,67,30.35,10.0,NNE,6.9,-,N/A,,Clear,30,2013-03-16 22:54:00
6:54 PM,3.0,-4.0,73,30.34,10.0,NE,3.5,-,N/A,,Partly Cloudy,50,2013-03-16 23:54:00
7:54 PM,3.9,-2.0,76,30.33,10.0,Calm,Calm,-,N/A,,Overcast,0,2013-03-17 00:54:00
8:54 PM,5.0,-0.9,76,30.33,10.0,East,4.6,-,N/A,,Overcast,80,2013-03-17 01:54:00
9:54 PM,5.0,-0.9,76,30.32,10.0,East,6.9,-,N/A,,Overcast,80,2013-03-17 02:54:00
10:54 PM,3.9,-2.9,73,30.29,10.0,East,8.1,-,N/A,,Overcast,80,2013-03-17 03:54:00
11:54 PM,3.9,-0.9,80,30.26,10.0,East,9.2,-,N/A,,Overcast,100,2013-03-17 04:54:00